<?xml version="1.0" encoding="UTF-8" standalone="no" ?>
<gpx xmlns="http://www.topografix.com/GPX/1/1" xmlns:xsi="http://www.w3.org/2001/XMLSchema-instance" xsi:schemaLocation="http://www.topografix.com/GPX/1/1 http://www.topografix.com/GPX/1/1/gpx.xsd" version="1.1" creator="VisuGPX - https://www.visugpx.com">
  <metadata>
    <name>Labyrinthe</name>
    <desc><![CDATA[Labyrinthe]]></desc>
  </metadata>
  <trk>
    <name><![CDATA[2015-08-06 19:18]]></name>
    <desc><![CDATA[<h1>OruxMaps</h1><br /><hr align="center" width="480" style="height: 2px; width: 517px"/><h2>Nom: 2015-08-06 19:18</h2><br /><p>Temps de départ: 08/06/2015 19:18</p><p>Temps d'arrivée: 08/06/2015 19:59</p><p>Distance: 6,9km (00:41)</p><p>Temps déplacement: 00:25</p><p>Vitesse moyenne: 10km/h</p><p>Vitesse moyenne: 16,2km/h</p><p>Vitess Max.: 21,2km/h</p><p>Altitude minimale: -19m</p><p>Altitude maximale: 148m</p><p>Vitesse d'élévation: 498,1m/h</p><p>Vitesse de descente: -542,7m/h</p><p>Gain Altitude: 176m</p><p>Perte Altitude: -120m</p><p>Temps d'élévation: 00:21</p><p>Temps de descente: 00:13</p><hr align="center" width="480" style="height: 2px; width: 517px"/>]]></desc>
    <trkseg>
      <trkpt lat="47.16785" lon="-1.62654">
        <ele>21</ele>
        <time>2015-08-06T17:18:42Z</time>
      </trkpt>
      <trkpt lat="47.16785" lon="-1.62654">
        <ele>20.3</ele>
        <time>2015-08-06T17:18:42Z</time>
      </trkpt>
      <trkpt lat="47.16769" lon="-1.62689">
        <ele>19.6</ele>
        <time>2015-08-06T17:19:04Z</time>
      </trkpt>
      <trkpt lat="47.16783" lon="-1.62739">
        <ele>19.7</ele>
        <time>2015-08-06T17:19:26Z</time>
      </trkpt>
      <trkpt lat="47.16764" lon="-1.62774">
        <ele>19.9</ele>
        <time>2015-08-06T17:19:48Z</time>
      </trkpt>
      <trkpt lat="47.16827" lon="-1.62835">
        <ele>19.8</ele>
        <time>2015-08-06T17:20:10Z</time>
      </trkpt>
      <trkpt lat="47.16855" lon="-1.62864">
        <ele>19.7</ele>
        <time>2015-08-06T17:20:32Z</time>
      </trkpt>
      <trkpt lat="47.16871" lon="-1.62887">
        <ele>20.2</ele>
        <time>2015-08-06T17:20:54Z</time>
      </trkpt>
      <trkpt lat="47.16883" lon="-1.62929">
        <ele>21.1</ele>
        <time>2015-08-06T17:21:16Z</time>
      </trkpt>
      <trkpt lat="47.16887" lon="-1.63007">
        <ele>19.3</ele>
        <time>2015-08-06T17:21:38Z</time>
      </trkpt>
      <trkpt lat="47.16888" lon="-1.63089">
        <ele>20.1</ele>
        <time>2015-08-06T17:22:00Z</time>
      </trkpt>
      <trkpt lat="47.16908" lon="-1.63167">
        <ele>21.5</ele>
        <time>2015-08-06T17:22:22Z</time>
      </trkpt>
      <trkpt lat="47.16939" lon="-1.63222">
        <ele>21.3</ele>
        <time>2015-08-06T17:22:44Z</time>
      </trkpt>
      <trkpt lat="47.16957" lon="-1.63253">
        <ele>20.3</ele>
        <time>2015-08-06T17:23:06Z</time>
      </trkpt>
      <trkpt lat="47.16933" lon="-1.63293">
        <ele>19.3</ele>
        <time>2015-08-06T17:23:28Z</time>
      </trkpt>
      <trkpt lat="47.16872" lon="-1.63382">
        <ele>19.7</ele>
        <time>2015-08-06T17:23:50Z</time>
      </trkpt>
      <trkpt lat="47.1674" lon="-1.63614">
        <ele>21</ele>
        <time>2015-08-06T17:24:12Z</time>
      </trkpt>
      <trkpt lat="47.16752" lon="-1.63654">
        <ele>20.5</ele>
        <time>2015-08-06T17:24:34Z</time>
      </trkpt>
      <trkpt lat="47.16876" lon="-1.63696">
        <ele>20.1</ele>
        <time>2015-08-06T17:24:56Z</time>
      </trkpt>
      <trkpt lat="47.16984" lon="-1.63737">
        <ele>20.3</ele>
        <time>2015-08-06T17:25:18Z</time>
      </trkpt>
      <trkpt lat="47.17054" lon="-1.63773">
        <ele>19.3</ele>
        <time>2015-08-06T17:25:40Z</time>
      </trkpt>
      <trkpt lat="47.17069" lon="-1.63801">
        <ele>18.3</ele>
        <time>2015-08-06T17:26:02Z</time>
      </trkpt>
      <trkpt lat="47.17097" lon="-1.63886">
        <ele>19.3</ele>
        <time>2015-08-06T17:26:24Z</time>
      </trkpt>
      <trkpt lat="47.17127" lon="-1.63961">
        <ele>21.3</ele>
        <time>2015-08-06T17:26:46Z</time>
      </trkpt>
      <trkpt lat="47.17105" lon="-1.64136">
        <ele>20.3</ele>
        <time>2015-08-06T17:27:08Z</time>
      </trkpt>
      <trkpt lat="47.1708" lon="-1.64436">
        <ele>19.3</ele>
        <time>2015-08-06T17:27:30Z</time>
      </trkpt>
      <trkpt lat="47.17077" lon="-1.64427">
        <ele>20.1</ele>
        <time>2015-08-06T17:27:52Z</time>
      </trkpt>
      <trkpt lat="47.17073" lon="-1.64457">
        <ele>19.9</ele>
        <time>2015-08-06T17:27:52Z</time>
      </trkpt>
      <trkpt lat="47.17071" lon="-1.64479">
        <ele>19.8</ele>
        <time>2015-08-06T17:27:52Z</time>
      </trkpt>
      <trkpt lat="47.17059" lon="-1.64421">
        <ele>19.7</ele>
        <time>2015-08-06T17:28:14Z</time>
      </trkpt>
      <trkpt lat="47.17067" lon="-1.64448">
        <ele>14</ele>
        <time>2015-08-06T17:28:20Z</time>
      </trkpt>
      <trkpt lat="47.17071" lon="-1.64479">
        <ele>19.2</ele>
        <time>2015-08-06T17:28:28Z</time>
      </trkpt>
      <trkpt lat="47.17068" lon="-1.6451">
        <ele>18.8</ele>
        <time>2015-08-06T17:28:37Z</time>
      </trkpt>
      <trkpt lat="47.17072" lon="-1.64538">
        <ele>18.9</ele>
        <time>2015-08-06T17:28:43Z</time>
      </trkpt>
      <trkpt lat="47.17069" lon="-1.6457">
        <ele>19.4</ele>
        <time>2015-08-06T17:28:48Z</time>
      </trkpt>
      <trkpt lat="47.1707" lon="-1.64597">
        <ele>19.6</ele>
        <time>2015-08-06T17:28:54Z</time>
      </trkpt>
      <trkpt lat="47.17076" lon="-1.64624">
        <ele>20.4</ele>
        <time>2015-08-06T17:29:02Z</time>
      </trkpt>
      <trkpt lat="47.1708" lon="-1.64653">
        <ele>21.5</ele>
        <time>2015-08-06T17:29:10Z</time>
      </trkpt>
      <trkpt lat="47.17088" lon="-1.64678">
        <ele>21.8</ele>
        <time>2015-08-06T17:29:18Z</time>
      </trkpt>
      <trkpt lat="47.1709" lon="-1.64706">
        <ele>21.1</ele>
        <time>2015-08-06T17:29:25Z</time>
      </trkpt>
      <trkpt lat="47.17097" lon="-1.64731">
        <ele>20.9</ele>
        <time>2015-08-06T17:29:37Z</time>
      </trkpt>
      <trkpt lat="47.17096" lon="-1.6476">
        <ele>20.9</ele>
        <time>2015-08-06T17:29:45Z</time>
      </trkpt>
      <trkpt lat="47.17095" lon="-1.64786">
        <ele>21</ele>
        <time>2015-08-06T17:29:50Z</time>
      </trkpt>
      <trkpt lat="47.17094" lon="-1.64816">
        <ele>21</ele>
        <time>2015-08-06T17:29:54Z</time>
      </trkpt>
      <trkpt lat="47.171" lon="-1.64843">
        <ele>20.9</ele>
        <time>2015-08-06T17:30:00Z</time>
      </trkpt>
      <trkpt lat="47.17109" lon="-1.6487">
        <ele>20.7</ele>
        <time>2015-08-06T17:30:06Z</time>
      </trkpt>
      <trkpt lat="47.17111" lon="-1.64899">
        <ele>20.9</ele>
        <time>2015-08-06T17:30:11Z</time>
      </trkpt>
      <trkpt lat="47.17105" lon="-1.64928">
        <ele>21</ele>
        <time>2015-08-06T17:30:16Z</time>
      </trkpt>
      <trkpt lat="47.17098" lon="-1.64954">
        <ele>21</ele>
        <time>2015-08-06T17:30:26Z</time>
      </trkpt>
      <trkpt lat="47.17101" lon="-1.64982">
        <ele>22.5</ele>
        <time>2015-08-06T17:30:34Z</time>
      </trkpt>
      <trkpt lat="47.17105" lon="-1.65009">
        <ele>23</ele>
        <time>2015-08-06T17:30:39Z</time>
      </trkpt>
      <trkpt lat="47.17114" lon="-1.65034">
        <ele>23.5</ele>
        <time>2015-08-06T17:30:46Z</time>
      </trkpt>
      <trkpt lat="47.1712" lon="-1.65061">
        <ele>23.8</ele>
        <time>2015-08-06T17:30:53Z</time>
      </trkpt>
      <trkpt lat="47.17123" lon="-1.65087">
        <ele>23.7</ele>
        <time>2015-08-06T17:30:59Z</time>
      </trkpt>
      <trkpt lat="47.17125" lon="-1.65115">
        <ele>23.6</ele>
        <time>2015-08-06T17:31:06Z</time>
      </trkpt>
      <trkpt lat="47.17122" lon="-1.65143">
        <ele>23.8</ele>
        <time>2015-08-06T17:31:12Z</time>
      </trkpt>
      <trkpt lat="47.17118" lon="-1.65172">
        <ele>24</ele>
        <time>2015-08-06T17:31:21Z</time>
      </trkpt>
      <trkpt lat="47.17113" lon="-1.65198">
        <ele>24</ele>
        <time>2015-08-06T17:31:29Z</time>
      </trkpt>
      <trkpt lat="47.17115" lon="-1.65226">
        <ele>24.3</ele>
        <time>2015-08-06T17:31:37Z</time>
      </trkpt>
      <trkpt lat="47.17107" lon="-1.65253">
        <ele>24.3</ele>
        <time>2015-08-06T17:31:41Z</time>
      </trkpt>
      <trkpt lat="47.17101" lon="-1.65283">
        <ele>24.6</ele>
        <time>2015-08-06T17:31:47Z</time>
      </trkpt>
      <trkpt lat="47.17095" lon="-1.65311">
        <ele>24.7</ele>
        <time>2015-08-06T17:31:53Z</time>
      </trkpt>
      <trkpt lat="47.17102" lon="-1.65342">
        <ele>24.8</ele>
        <time>2015-08-06T17:31:59Z</time>
      </trkpt>
      <trkpt lat="47.17114" lon="-1.65364">
        <ele>24.8</ele>
        <time>2015-08-06T17:32:03Z</time>
      </trkpt>
      <trkpt lat="47.17111" lon="-1.65391">
        <ele>24.5</ele>
        <time>2015-08-06T17:32:17Z</time>
      </trkpt>
      <trkpt lat="47.17114" lon="-1.65422">
        <ele>24.4</ele>
        <time>2015-08-06T17:32:25Z</time>
      </trkpt>
      <trkpt lat="47.17113" lon="-1.65449">
        <ele>24.2</ele>
        <time>2015-08-06T17:32:30Z</time>
      </trkpt>
      <trkpt lat="47.17118" lon="-1.65476">
        <ele>24.2</ele>
        <time>2015-08-06T17:32:38Z</time>
      </trkpt>
      <trkpt lat="47.17112" lon="-1.65503">
        <ele>24.1</ele>
        <time>2015-08-06T17:32:48Z</time>
      </trkpt>
      <trkpt lat="47.17097" lon="-1.65519">
        <ele>24.4</ele>
        <time>2015-08-06T17:32:57Z</time>
      </trkpt>
      <trkpt lat="47.17089" lon="-1.65548">
        <ele>24.5</ele>
        <time>2015-08-06T17:33:03Z</time>
      </trkpt>
      <trkpt lat="47.17079" lon="-1.65572">
        <ele>24.7</ele>
        <time>2015-08-06T17:33:10Z</time>
      </trkpt>
      <trkpt lat="47.17068" lon="-1.65595">
        <ele>24.7</ele>
        <time>2015-08-06T17:33:17Z</time>
      </trkpt>
      <trkpt lat="47.17057" lon="-1.65617">
        <ele>24.8</ele>
        <time>2015-08-06T17:33:24Z</time>
      </trkpt>
      <trkpt lat="47.17042" lon="-1.65636">
        <ele>25</ele>
        <time>2015-08-06T17:33:31Z</time>
      </trkpt>
      <trkpt lat="47.17026" lon="-1.65655">
        <ele>25.2</ele>
        <time>2015-08-06T17:33:38Z</time>
      </trkpt>
      <trkpt lat="47.17014" lon="-1.65677">
        <ele>25.5</ele>
        <time>2015-08-06T17:33:45Z</time>
      </trkpt>
      <trkpt lat="47.16997" lon="-1.65697">
        <ele>25.8</ele>
        <time>2015-08-06T17:33:52Z</time>
      </trkpt>
      <trkpt lat="47.16976" lon="-1.65707">
        <ele>26.1</ele>
        <time>2015-08-06T17:33:59Z</time>
      </trkpt>
      <trkpt lat="47.16959" lon="-1.65717">
        <ele>26.5</ele>
        <time>2015-08-06T17:34:07Z</time>
      </trkpt>
      <trkpt lat="47.1696" lon="-1.65748">
        <ele>26.9</ele>
        <time>2015-08-06T17:34:13Z</time>
      </trkpt>
      <trkpt lat="47.16956" lon="-1.65776">
        <ele>27.1</ele>
        <time>2015-08-06T17:34:18Z</time>
      </trkpt>
      <trkpt lat="47.16949" lon="-1.65802">
        <ele>27.6</ele>
        <time>2015-08-06T17:34:25Z</time>
      </trkpt>
      <trkpt lat="47.16939" lon="-1.65827">
        <ele>27.9</ele>
        <time>2015-08-06T17:34:33Z</time>
      </trkpt>
      <trkpt lat="47.16919" lon="-1.65828">
        <ele>28.1</ele>
        <time>2015-08-06T17:34:39Z</time>
      </trkpt>
      <trkpt lat="47.16909" lon="-1.65852">
        <ele>28.3</ele>
        <time>2015-08-06T17:34:45Z</time>
      </trkpt>
      <trkpt lat="47.169" lon="-1.65875">
        <ele>28.7</ele>
        <time>2015-08-06T17:34:52Z</time>
      </trkpt>
      <trkpt lat="47.16891" lon="-1.65899">
        <ele>28.8</ele>
        <time>2015-08-06T17:34:59Z</time>
      </trkpt>
      <trkpt lat="47.16879" lon="-1.65922">
        <ele>29.1</ele>
        <time>2015-08-06T17:35:06Z</time>
      </trkpt>
      <trkpt lat="47.16879" lon="-1.65889">
        <ele>30.9</ele>
        <time>2015-08-06T17:35:31Z</time>
      </trkpt>
      <trkpt lat="47.16883" lon="-1.65861">
        <ele>31.3</ele>
        <time>2015-08-06T17:35:38Z</time>
      </trkpt>
      <trkpt lat="47.16845" lon="-1.65318">
        <ele>38.4</ele>
        <time>2015-08-06T17:37:59Z</time>
      </trkpt>
      <trkpt lat="47.16832" lon="-1.65299">
        <ele>38.6</ele>
        <time>2015-08-06T17:38:03Z</time>
      </trkpt>
      <trkpt lat="47.16825" lon="-1.6527">
        <ele>39.1</ele>
        <time>2015-08-06T17:38:10Z</time>
      </trkpt>
      <trkpt lat="47.16818" lon="-1.65245">
        <ele>39.7</ele>
        <time>2015-08-06T17:38:17Z</time>
      </trkpt>
      <trkpt lat="47.16806" lon="-1.6522">
        <ele>39.8</ele>
        <time>2015-08-06T17:38:23Z</time>
      </trkpt>
      <trkpt lat="47.16797" lon="-1.65192">
        <ele>40.4</ele>
        <time>2015-08-06T17:38:30Z</time>
      </trkpt>
      <trkpt lat="47.16796" lon="-1.65163">
        <ele>41.2</ele>
        <time>2015-08-06T17:38:38Z</time>
      </trkpt>
      <trkpt lat="47.16795" lon="-1.65136">
        <ele>41.9</ele>
        <time>2015-08-06T17:38:46Z</time>
      </trkpt>
      <trkpt lat="47.16804" lon="-1.6511">
        <ele>42.3</ele>
        <time>2015-08-06T17:38:54Z</time>
      </trkpt>
      <trkpt lat="47.16806" lon="-1.6508">
        <ele>42.8</ele>
        <time>2015-08-06T17:39:02Z</time>
      </trkpt>
      <trkpt lat="47.1681" lon="-1.65052">
        <ele>43.7</ele>
        <time>2015-08-06T17:39:12Z</time>
      </trkpt>
      <trkpt lat="47.16813" lon="-1.65024">
        <ele>44.1</ele>
        <time>2015-08-06T17:39:20Z</time>
      </trkpt>
      <trkpt lat="47.16809" lon="-1.64996">
        <ele>45</ele>
        <time>2015-08-06T17:39:29Z</time>
      </trkpt>
      <trkpt lat="47.16812" lon="-1.64967">
        <ele>45.8</ele>
        <time>2015-08-06T17:39:36Z</time>
      </trkpt>
      <trkpt lat="47.16806" lon="-1.64937">
        <ele>46.4</ele>
        <time>2015-08-06T17:39:45Z</time>
      </trkpt>
      <trkpt lat="47.16812" lon="-1.64911">
        <ele>47.2</ele>
        <time>2015-08-06T17:39:51Z</time>
      </trkpt>
      <trkpt lat="47.16817" lon="-1.64882">
        <ele>47.9</ele>
        <time>2015-08-06T17:39:58Z</time>
      </trkpt>
      <trkpt lat="47.16824" lon="-1.64856">
        <ele>48.3</ele>
        <time>2015-08-06T17:40:04Z</time>
      </trkpt>
      <trkpt lat="47.16819" lon="-1.64829">
        <ele>48.8</ele>
        <time>2015-08-06T17:40:12Z</time>
      </trkpt>
      <trkpt lat="47.16817" lon="-1.64801">
        <ele>49.7</ele>
        <time>2015-08-06T17:40:22Z</time>
      </trkpt>
      <trkpt lat="47.16805" lon="-1.64781">
        <ele>50.2</ele>
        <time>2015-08-06T17:40:27Z</time>
      </trkpt>
      <trkpt lat="47.168" lon="-1.64753">
        <ele>51</ele>
        <time>2015-08-06T17:40:35Z</time>
      </trkpt>
      <trkpt lat="47.16778" lon="-1.64711">
        <ele>51.5</ele>
        <time>2015-08-06T17:40:47Z</time>
      </trkpt>
      <trkpt lat="47.16761" lon="-1.64692">
        <ele>52</ele>
        <time>2015-08-06T17:40:51Z</time>
      </trkpt>
      <trkpt lat="47.16758" lon="-1.64661">
        <ele>52.5</ele>
        <time>2015-08-06T17:41:00Z</time>
      </trkpt>
      <trkpt lat="47.16744" lon="-1.6464">
        <ele>53.1</ele>
        <time>2015-08-06T17:41:06Z</time>
      </trkpt>
      <trkpt lat="47.16734" lon="-1.64617">
        <ele>53.8</ele>
        <time>2015-08-06T17:41:13Z</time>
      </trkpt>
      <trkpt lat="47.16724" lon="-1.64592">
        <ele>54.2</ele>
        <time>2015-08-06T17:41:20Z</time>
      </trkpt>
      <trkpt lat="47.16716" lon="-1.64551">
        <ele>54.9</ele>
        <time>2015-08-06T17:41:32Z</time>
      </trkpt>
      <trkpt lat="47.16691" lon="-1.64408">
        <ele>59</ele>
        <time>2015-08-06T17:42:12Z</time>
      </trkpt>
      <trkpt lat="47.16692" lon="-1.64379">
        <ele>60.1</ele>
        <time>2015-08-06T17:42:22Z</time>
      </trkpt>
      <trkpt lat="47.16684" lon="-1.64353">
        <ele>59.8</ele>
        <time>2015-08-06T17:42:32Z</time>
      </trkpt>
      <trkpt lat="47.16675" lon="-1.64327">
        <ele>59.7</ele>
        <time>2015-08-06T17:42:41Z</time>
      </trkpt>
      <trkpt lat="47.16672" lon="-1.64299">
        <ele>60.7</ele>
        <time>2015-08-06T17:42:50Z</time>
      </trkpt>
      <trkpt lat="47.16674" lon="-1.64271">
        <ele>62</ele>
        <time>2015-08-06T17:43:00Z</time>
      </trkpt>
      <trkpt lat="47.16661" lon="-1.64244">
        <ele>63.4</ele>
        <time>2015-08-06T17:43:12Z</time>
      </trkpt>
      <trkpt lat="47.16647" lon="-1.64223">
        <ele>64.1</ele>
        <time>2015-08-06T17:43:16Z</time>
      </trkpt>
      <trkpt lat="47.16646" lon="-1.64193">
        <ele>65.5</ele>
        <time>2015-08-06T17:43:26Z</time>
      </trkpt>
      <trkpt lat="47.16628" lon="-1.64195">
        <ele>66.6</ele>
        <time>2015-08-06T17:43:39Z</time>
      </trkpt>
      <trkpt lat="47.16609" lon="-1.64205">
        <ele>68</ele>
        <time>2015-08-06T17:43:47Z</time>
      </trkpt>
      <trkpt lat="47.16594" lon="-1.64221">
        <ele>68.9</ele>
        <time>2015-08-06T17:43:53Z</time>
      </trkpt>
      <trkpt lat="47.16576" lon="-1.64228">
        <ele>69.7</ele>
        <time>2015-08-06T17:43:58Z</time>
      </trkpt>
      <trkpt lat="47.1656" lon="-1.64241">
        <ele>70.7</ele>
        <time>2015-08-06T17:44:04Z</time>
      </trkpt>
      <trkpt lat="47.16544" lon="-1.64258">
        <ele>71.8</ele>
        <time>2015-08-06T17:44:11Z</time>
      </trkpt>
      <trkpt lat="47.16536" lon="-1.64285">
        <ele>73.1</ele>
        <time>2015-08-06T17:44:18Z</time>
      </trkpt>
      <trkpt lat="47.16516" lon="-1.64294">
        <ele>74.9</ele>
        <time>2015-08-06T17:44:28Z</time>
      </trkpt>
      <trkpt lat="47.16498" lon="-1.64281">
        <ele>75.9</ele>
        <time>2015-08-06T17:44:33Z</time>
      </trkpt>
      <trkpt lat="47.16484" lon="-1.64264">
        <ele>77.2</ele>
        <time>2015-08-06T17:44:40Z</time>
      </trkpt>
      <trkpt lat="47.16484" lon="-1.64237">
        <ele>78.8</ele>
        <time>2015-08-06T17:44:48Z</time>
      </trkpt>
      <trkpt lat="47.16495" lon="-1.64214">
        <ele>80.1</ele>
        <time>2015-08-06T17:44:55Z</time>
      </trkpt>
      <trkpt lat="47.16509" lon="-1.64196">
        <ele>81.2</ele>
        <time>2015-08-06T17:45:01Z</time>
      </trkpt>
      <trkpt lat="47.16525" lon="-1.6418">
        <ele>82.2</ele>
        <time>2015-08-06T17:45:08Z</time>
      </trkpt>
      <trkpt lat="47.16531" lon="-1.64152">
        <ele>83.9</ele>
        <time>2015-08-06T17:45:17Z</time>
      </trkpt>
      <trkpt lat="47.16545" lon="-1.64135">
        <ele>84.9</ele>
        <time>2015-08-06T17:45:23Z</time>
      </trkpt>
      <trkpt lat="47.16558" lon="-1.64113">
        <ele>85.7</ele>
        <time>2015-08-06T17:45:29Z</time>
      </trkpt>
      <trkpt lat="47.16579" lon="-1.64111">
        <ele>86.1</ele>
        <time>2015-08-06T17:45:34Z</time>
      </trkpt>
      <trkpt lat="47.16593" lon="-1.6409">
        <ele>86.8</ele>
        <time>2015-08-06T17:45:41Z</time>
      </trkpt>
      <trkpt lat="47.16595" lon="-1.64063">
        <ele>87.8</ele>
        <time>2015-08-06T17:45:48Z</time>
      </trkpt>
      <trkpt lat="47.16598" lon="-1.64031">
        <ele>88.8</ele>
        <time>2015-08-06T17:45:57Z</time>
      </trkpt>
      <trkpt lat="47.16598" lon="-1.64005">
        <ele>89.3</ele>
        <time>2015-08-06T17:46:03Z</time>
      </trkpt>
      <trkpt lat="47.16586" lon="-1.63984">
        <ele>89.9</ele>
        <time>2015-08-06T17:46:09Z</time>
      </trkpt>
      <trkpt lat="47.16575" lon="-1.6396">
        <ele>90.9</ele>
        <time>2015-08-06T17:46:18Z</time>
      </trkpt>
      <trkpt lat="47.16569" lon="-1.63935">
        <ele>92.4</ele>
        <time>2015-08-06T17:46:26Z</time>
      </trkpt>
      <trkpt lat="47.16568" lon="-1.63906">
        <ele>94.1</ele>
        <time>2015-08-06T17:46:36Z</time>
      </trkpt>
      <trkpt lat="47.16553" lon="-1.63888">
        <ele>95</ele>
        <time>2015-08-06T17:46:42Z</time>
      </trkpt>
      <trkpt lat="47.16541" lon="-1.63863">
        <ele>96.3</ele>
        <time>2015-08-06T17:46:51Z</time>
      </trkpt>
      <trkpt lat="47.16526" lon="-1.63841">
        <ele>96.9</ele>
        <time>2015-08-06T17:46:58Z</time>
      </trkpt>
      <trkpt lat="47.1652" lon="-1.63814">
        <ele>98</ele>
        <time>2015-08-06T17:47:05Z</time>
      </trkpt>
      <trkpt lat="47.16514" lon="-1.63789">
        <ele>99.3</ele>
        <time>2015-08-06T17:47:15Z</time>
      </trkpt>
      <trkpt lat="47.16524" lon="-1.63765">
        <ele>101.4</ele>
        <time>2015-08-06T17:47:23Z</time>
      </trkpt>
      <trkpt lat="47.16531" lon="-1.63738">
        <ele>103.3</ele>
        <time>2015-08-06T17:47:32Z</time>
      </trkpt>
      <trkpt lat="47.16547" lon="-1.63722">
        <ele>105.4</ele>
        <time>2015-08-06T17:47:41Z</time>
      </trkpt>
      <trkpt lat="47.16563" lon="-1.63706">
        <ele>106.9</ele>
        <time>2015-08-06T17:47:47Z</time>
      </trkpt>
      <trkpt lat="47.16553" lon="-1.63683">
        <ele>109.3</ele>
        <time>2015-08-06T17:47:56Z</time>
      </trkpt>
      <trkpt lat="47.16518" lon="-1.63646">
        <ele>111.7</ele>
        <time>2015-08-06T17:48:05Z</time>
      </trkpt>
      <trkpt lat="47.16512" lon="-1.63618">
        <ele>114.1</ele>
        <time>2015-08-06T17:48:14Z</time>
      </trkpt>
      <trkpt lat="47.16502" lon="-1.63592">
        <ele>116.4</ele>
        <time>2015-08-06T17:48:22Z</time>
      </trkpt>
      <trkpt lat="47.16487" lon="-1.63579">
        <ele>118.9</ele>
        <time>2015-08-06T17:48:32Z</time>
      </trkpt>
      <trkpt lat="47.16465" lon="-1.6358">
        <ele>118.2</ele>
        <time>2015-08-06T17:48:35Z</time>
      </trkpt>
      <trkpt lat="47.16443" lon="-1.63578">
        <ele>118.3</ele>
        <time>2015-08-06T17:48:41Z</time>
      </trkpt>
      <trkpt lat="47.16424" lon="-1.6357">
        <ele>118.3</ele>
        <time>2015-08-06T17:48:44Z</time>
      </trkpt>
      <trkpt lat="47.16404" lon="-1.63557">
        <ele>118.6</ele>
        <time>2015-08-06T17:48:48Z</time>
      </trkpt>
      <trkpt lat="47.16385" lon="-1.63553">
        <ele>120.2</ele>
        <time>2015-08-06T17:48:59Z</time>
      </trkpt>
      <trkpt lat="47.1637" lon="-1.63527">
        <ele>120.5</ele>
        <time>2015-08-06T17:49:06Z</time>
      </trkpt>
      <trkpt lat="47.16355" lon="-1.6351">
        <ele>121.8</ele>
        <time>2015-08-06T17:49:11Z</time>
      </trkpt>
      <trkpt lat="47.1634" lon="-1.6349">
        <ele>123</ele>
        <time>2015-08-06T17:49:18Z</time>
      </trkpt>
      <trkpt lat="47.16326" lon="-1.6347">
        <ele>123.7</ele>
        <time>2015-08-06T17:49:23Z</time>
      </trkpt>
      <trkpt lat="47.16319" lon="-1.63445">
        <ele>123.7</ele>
        <time>2015-08-06T17:49:33Z</time>
      </trkpt>
      <trkpt lat="47.16312" lon="-1.63421">
        <ele>125.1</ele>
        <time>2015-08-06T17:49:40Z</time>
      </trkpt>
      <trkpt lat="47.16295" lon="-1.63399">
        <ele>125.7</ele>
        <time>2015-08-06T17:49:46Z</time>
      </trkpt>
      <trkpt lat="47.16279" lon="-1.63381">
        <ele>126.3</ele>
        <time>2015-08-06T17:49:51Z</time>
      </trkpt>
      <trkpt lat="47.16268" lon="-1.6336">
        <ele>127.9</ele>
        <time>2015-08-06T17:49:59Z</time>
      </trkpt>
      <trkpt lat="47.16278" lon="-1.63338">
        <ele>128.4</ele>
        <time>2015-08-06T17:50:07Z</time>
      </trkpt>
      <trkpt lat="47.16277" lon="-1.63311">
        <ele>127.7</ele>
        <time>2015-08-06T17:50:16Z</time>
      </trkpt>
      <trkpt lat="47.16267" lon="-1.63284">
        <ele>128.5</ele>
        <time>2015-08-06T17:50:24Z</time>
      </trkpt>
      <trkpt lat="47.16266" lon="-1.63256">
        <ele>129.2</ele>
        <time>2015-08-06T17:50:31Z</time>
      </trkpt>
      <trkpt lat="47.16266" lon="-1.63225">
        <ele>129.2</ele>
        <time>2015-08-06T17:50:37Z</time>
      </trkpt>
      <trkpt lat="47.16279" lon="-1.63203">
        <ele>129.6</ele>
        <time>2015-08-06T17:50:45Z</time>
      </trkpt>
      <trkpt lat="47.16268" lon="-1.63181">
        <ele>129.2</ele>
        <time>2015-08-06T17:50:51Z</time>
      </trkpt>
      <trkpt lat="47.16252" lon="-1.63162">
        <ele>129.5</ele>
        <time>2015-08-06T17:50:55Z</time>
      </trkpt>
      <trkpt lat="47.16236" lon="-1.63145">
        <ele>129.5</ele>
        <time>2015-08-06T17:51:00Z</time>
      </trkpt>
      <trkpt lat="47.16223" lon="-1.63123">
        <ele>129.6</ele>
        <time>2015-08-06T17:51:04Z</time>
      </trkpt>
      <trkpt lat="47.16239" lon="-1.63108">
        <ele>130</ele>
        <time>2015-08-06T17:51:18Z</time>
      </trkpt>
      <trkpt lat="47.16224" lon="-1.63092">
        <ele>130.4</ele>
        <time>2015-08-06T17:51:23Z</time>
      </trkpt>
      <trkpt lat="47.16229" lon="-1.63064">
        <ele>130.8</ele>
        <time>2015-08-06T17:51:32Z</time>
      </trkpt>
      <trkpt lat="47.1625" lon="-1.63058">
        <ele>131.1</ele>
        <time>2015-08-06T17:51:36Z</time>
      </trkpt>
      <trkpt lat="47.16256" lon="-1.63029">
        <ele>132.1</ele>
        <time>2015-08-06T17:51:46Z</time>
      </trkpt>
      <trkpt lat="47.16261" lon="-1.62999">
        <ele>132.8</ele>
        <time>2015-08-06T17:52:01Z</time>
      </trkpt>
      <trkpt lat="47.16262" lon="-1.6297">
        <ele>133.7</ele>
        <time>2015-08-06T17:52:07Z</time>
      </trkpt>
      <trkpt lat="47.16271" lon="-1.62945">
        <ele>135.1</ele>
        <time>2015-08-06T17:52:15Z</time>
      </trkpt>
      <trkpt lat="47.16285" lon="-1.62925">
        <ele>135.3</ele>
        <time>2015-08-06T17:52:23Z</time>
      </trkpt>
      <trkpt lat="47.16303" lon="-1.62913">
        <ele>135.7</ele>
        <time>2015-08-06T17:52:27Z</time>
      </trkpt>
      <trkpt lat="47.16315" lon="-1.62892">
        <ele>136.1</ele>
        <time>2015-08-06T17:52:34Z</time>
      </trkpt>
      <trkpt lat="47.16329" lon="-1.62876">
        <ele>135.9</ele>
        <time>2015-08-06T17:52:44Z</time>
      </trkpt>
      <trkpt lat="47.16341" lon="-1.62844">
        <ele>136.2</ele>
        <time>2015-08-06T17:53:03Z</time>
      </trkpt>
      <trkpt lat="47.16354" lon="-1.62821">
        <ele>135.3</ele>
        <time>2015-08-06T17:53:07Z</time>
      </trkpt>
      <trkpt lat="47.16368" lon="-1.62803">
        <ele>134.6</ele>
        <time>2015-08-06T17:53:12Z</time>
      </trkpt>
      <trkpt lat="47.16381" lon="-1.62781">
        <ele>135.6</ele>
        <time>2015-08-06T17:53:20Z</time>
      </trkpt>
      <trkpt lat="47.16396" lon="-1.62761">
        <ele>136.7</ele>
        <time>2015-08-06T17:53:27Z</time>
      </trkpt>
      <trkpt lat="47.16411" lon="-1.6274">
        <ele>137.3</ele>
        <time>2015-08-06T17:53:34Z</time>
      </trkpt>
      <trkpt lat="47.16392" lon="-1.62725">
        <ele>138.7</ele>
        <time>2015-08-06T17:53:42Z</time>
      </trkpt>
      <trkpt lat="47.1639" lon="-1.62697">
        <ele>139.7</ele>
        <time>2015-08-06T17:53:48Z</time>
      </trkpt>
      <trkpt lat="47.16407" lon="-1.62683">
        <ele>140.3</ele>
        <time>2015-08-06T17:53:52Z</time>
      </trkpt>
      <trkpt lat="47.16415" lon="-1.62656">
        <ele>141.7</ele>
        <time>2015-08-06T17:53:59Z</time>
      </trkpt>
      <trkpt lat="47.16418" lon="-1.62594">
        <ele>145.1</ele>
        <time>2015-08-06T17:54:17Z</time>
      </trkpt>
      <trkpt lat="47.16401" lon="-1.62584">
        <ele>145.3</ele>
        <time>2015-08-06T17:54:19Z</time>
      </trkpt>
      <trkpt lat="47.16414" lon="-1.62563">
        <ele>147.6</ele>
        <time>2015-08-06T17:54:34Z</time>
      </trkpt>
      <trkpt lat="47.16428" lon="-1.62581">
        <ele>147.5</ele>
        <time>2015-08-06T17:54:43Z</time>
      </trkpt>
      <trkpt lat="47.16441" lon="-1.62604">
        <ele>146.6</ele>
        <time>2015-08-06T17:54:51Z</time>
      </trkpt>
      <trkpt lat="47.1643" lon="-1.62628">
        <ele>147</ele>
        <time>2015-08-06T17:54:54Z</time>
      </trkpt>
      <trkpt lat="47.16464" lon="-1.62613">
        <ele>147.7</ele>
        <time>2015-08-06T17:55:05Z</time>
      </trkpt>
      <trkpt lat="47.16486" lon="-1.62585">
        <ele>147.6</ele>
        <time>2015-08-06T17:55:06Z</time>
      </trkpt>
      <trkpt lat="47.165" lon="-1.62567">
        <ele>147.9</ele>
        <time>2015-08-06T17:55:08Z</time>
      </trkpt>
      <trkpt lat="47.1651" lon="-1.62544">
        <ele>148.6</ele>
        <time>2015-08-06T17:55:18Z</time>
      </trkpt>
      <trkpt lat="47.16527" lon="-1.62534">
        <ele>148.8</ele>
        <time>2015-08-06T17:55:28Z</time>
      </trkpt>
      <trkpt lat="47.16546" lon="-1.62541">
        <ele>146.3</ele>
        <time>2015-08-06T17:55:33Z</time>
      </trkpt>
      <trkpt lat="47.16565" lon="-1.62549">
        <ele>140.9</ele>
        <time>2015-08-06T17:55:42Z</time>
      </trkpt>
      <trkpt lat="47.16585" lon="-1.6256">
        <ele>135.2</ele>
        <time>2015-08-06T17:55:53Z</time>
      </trkpt>
      <trkpt lat="47.16602" lon="-1.62569">
        <ele>125.5</ele>
        <time>2015-08-06T17:56:03Z</time>
      </trkpt>
      <trkpt lat="47.16619" lon="-1.62551">
        <ele>119.5</ele>
        <time>2015-08-06T17:56:17Z</time>
      </trkpt>
      <trkpt lat="47.16636" lon="-1.62535">
        <ele>116.2</ele>
        <time>2015-08-06T17:56:24Z</time>
      </trkpt>
      <trkpt lat="47.16642" lon="-1.62506">
        <ele>112.5</ele>
        <time>2015-08-06T17:56:31Z</time>
      </trkpt>
      <trkpt lat="47.16654" lon="-1.62487">
        <ele>109.2</ele>
        <time>2015-08-06T17:56:38Z</time>
      </trkpt>
      <trkpt lat="47.16667" lon="-1.62467">
        <ele>104.8</ele>
        <time>2015-08-06T17:56:45Z</time>
      </trkpt>
      <trkpt lat="47.16678" lon="-1.62444">
        <ele>100.2</ele>
        <time>2015-08-06T17:56:54Z</time>
      </trkpt>
      <trkpt lat="47.16677" lon="-1.62417">
        <ele>96.9</ele>
        <time>2015-08-06T17:57:02Z</time>
      </trkpt>
      <trkpt lat="47.16684" lon="-1.62389">
        <ele>94.1</ele>
        <time>2015-08-06T17:57:11Z</time>
      </trkpt>
      <trkpt lat="47.16701" lon="-1.6238">
        <ele>88</ele>
        <time>2015-08-06T17:57:25Z</time>
      </trkpt>
      <trkpt lat="47.16718" lon="-1.62391">
        <ele>81.1</ele>
        <time>2015-08-06T17:57:49Z</time>
      </trkpt>
      <trkpt lat="47.16722" lon="-1.62417">
        <ele>77.4</ele>
        <time>2015-08-06T17:57:57Z</time>
      </trkpt>
      <trkpt lat="47.16739" lon="-1.62427">
        <ele>73.7</ele>
        <time>2015-08-06T17:58:05Z</time>
      </trkpt>
      <trkpt lat="47.16746" lon="-1.62453">
        <ele>76.8</ele>
        <time>2015-08-06T17:58:11Z</time>
      </trkpt>
      <trkpt lat="47.16764" lon="-1.62467">
        <ele>75.6</ele>
        <time>2015-08-06T17:58:20Z</time>
      </trkpt>
      <trkpt lat="47.16777" lon="-1.62486">
        <ele>80.2</ele>
        <time>2015-08-06T17:58:27Z</time>
      </trkpt>
      <trkpt lat="47.16778" lon="-1.62513">
        <ele>78.4</ele>
        <time>2015-08-06T17:58:33Z</time>
      </trkpt>
      <trkpt lat="47.16773" lon="-1.62541">
        <ele>76.6</ele>
        <time>2015-08-06T17:58:41Z</time>
      </trkpt>
      <trkpt lat="47.1676" lon="-1.62561">
        <ele>76</ele>
        <time>2015-08-06T17:58:49Z</time>
      </trkpt>
      <trkpt lat="47.16753" lon="-1.6259">
        <ele>77.1</ele>
        <time>2015-08-06T17:58:57Z</time>
      </trkpt>
      <trkpt lat="47.16761" lon="-1.62615">
        <ele>81.9</ele>
        <time>2015-08-06T17:59:03Z</time>
      </trkpt>
      <trkpt lat="47.16761" lon="-1.62643">
        <ele>80.9</ele>
        <time>2015-08-06T17:59:12Z</time>
      </trkpt>
      <trkpt lat="47.16773" lon="-1.62664">
        <ele>80.3</ele>
        <time>2015-08-06T17:59:20Z</time>
      </trkpt>
      <trkpt lat="47.16793" lon="-1.62667">
        <ele>82.2</ele>
        <time>2015-08-06T17:59:35Z</time>
      </trkpt>
      <trkpt lat="47.16811" lon="-1.62678">
        <ele>81.2</ele>
        <time>2015-08-06T17:59:41Z</time>
      </trkpt>
      <trkpt lat="47.16822" lon="-1.62657">
        <ele>79.2</ele>
        <time>2015-08-06T17:59:51Z</time>
      </trkpt>
    </trkseg>
  </trk>
</gpx>